Aérodrome :
LOGIN :

S'inscrire | Disclaimer

   EN    FR    IT 

 










Légende :    VFR   VFR Marginal   IFR   IFR Intensif   IFR Très Intensif
Visi : 
Plafond : 
>= 8 km
>= 3000ft
5 à 8 km
1000 à 3000 ft
1500m à 5 km
500 à 1000 ft
800 à 1500m
200 à 500 ft
< 800m
< 200 ft
Symboles :   Orages  Brouillard  Fortes neiges  Fortes précipitations  Vent > 20 kt
SIGMETs :   Divers  Orages  Givrage  Turbulence  Onde Orograph.  Cendres Volcan.







- Altitude de l'aérodrome : 751 ft
- Code IATA : ENC
- Voir les cartes d'approche


LFSN - Nancy Essey

DERNIER METAR :
  • 170500Z AUTO 20011KT 180V250 8000 OVC019 06/04 Q1006

METARs EXPIRÉS :
  • 170430Z AUTO 19010G24KT 160V220 9999 -RA BKN022 OVC033 06/03 Q1006
  • 170400Z AUTO 21014KT 9999 -RA FEW032/// SCT040/// BKN047/// ///TCU 06/03 Q1006
  • 170330Z AUTO 20012KT 170V240 9999 -RA FEW027 SCT042 BKN050 06/03 Q1006
  • 170300Z AUTO 20010KT 150V230 9999 SCT010 OVC017 05/03 Q1007
  • 170230Z AUTO 20013KT 9999 -RA FEW012 OVC019 05/03 Q1008

Prévision TAF périmée.
Pas de NOTAMs connus pour ce terrain.
1 SIGMET publié pour la FIR Reims (LFEE) :
 
Turbulence forte
LFEE SIGMET 2 VALID 170100/170500 LFPW
LFEE REIMS FIR/UIR SEV TURB FCST WI N4845 E00715 - N4830 E00745 - N4745 E00730 - N4745 E00645 - N4845 E00715 SFC/FL050 STNR NC=



MET'MAP, la Météo Aéronautique d'un coup d'oeil ! - Copyright ORBIFLY Décembre 2007 - Disclaimer

ORBIFLY MET'MAP TEAM :

Programmation & Développement : Alexandra Zaïnal
Conception & Développement : Baudouin d'Aumeries
Co-Programmation & Développement : Marc-Olivier Méhu
Soutien technique & logistique : Manuel Goepfert

Contact : metmap@orbifly.com




SOURCES & CREDITS :

   NOAA